Flight Track Log - Related Links

Times and Time Zones

All times are in EDT time to prevent confusion due to time zone crossing. See the SWA720 flight status page for this flight to view local times or setup timezone preferences in your user account.

Time Position Orientation Groundspeed Altitude Reporting Facility
EDT Latitude Longitude Course Direction KTS km/h feet Rate Location/Type
Sat 23:35:23 33.4333 -112.0333 239° Southwest 156 290 2.100  Level Phoenix TRACON
Sat 23:35:59 33.4167 -112.0667 239° Southwest 196 364 3.100 1.851 Climbing Phoenix TRACON
Sat 23:36:57 33.4050 -112.1250 257° West 214 396 5.000 2.168 Climbing Albuquerque Center
Sat 23:37:58 33.3581 -112.1919 230° Southwest 266 492 7.400 2.430 Climbing Albuquerque Center
Sat 23:38:58 33.3033 -112.2583 225° Southwest 279 517 9.900 1.686 Climbing Albuquerque Center
Sat 23:39:59 33.2392 -112.3353 225° Southwest 330 612 10.800 1.587 Climbing Albuquerque Center
Sat 23:40:59 33.1672 -112.4217 225° Southwest 362 671 13.100 2.281 Climbing Albuquerque Center
Sat 23:42:00 33.0850 -112.5200 225° Southwest 373 690 15.400 2.016 Climbing Albuquerque Center
Sat 23:43:01 33.0108 -112.6083 225° Southwest 377 698 17.200 1.636 Climbing Albuquerque Center
Sat 23:44:01 32.9506 -112.7119 235° Southwest 387 716 18.700 1.537 Climbing Albuquerque Center
Sat 23:45:02 32.9344 -112.8356 261° West 384 711 20.300 1.884 Climbing Albuquerque Center
Sat 23:46:02 32.9178 -112.9622 261° West 388 719 22.500 2.033 Climbing Albuquerque Center
Sat 23:47:03 32.9008 -113.0906 261° West 393 727 24.400 1.686 Climbing Albuquerque Center
Sat 23:48:03 32.8944 -113.2231 267° West 401 742 25.900 1.736 Climbing Albuquerque Center
Sat 23:49:04 32.8867 -113.3572 266° West 408 756 27.900 2.033 Climbing Albuquerque Center
Sat 23:50:04 32.8794 -113.4889 266° West 405 750 30.000 1.835 Climbing Albuquerque Center
Sat 23:51:05 32.8719 -113.6147 266° West 390 723 31.600 992 Climbing Albuquerque Center
Sat 23:52:05 32.8661 -113.7428 267° West 389 721 32.000 198 Climbing Albuquerque Center
Sat 23:53:06 32.8622 -113.8975 268° West 391 724 32.000  Level Albuquerque Center
Sat 23:54:06 32.8581 -114.0281 268° West 395 732 32.000  Level Albuquerque Center
Sat 23:55:07 32.8533 -114.1575 268° West 393 727 32.000  Level Albuquerque Center
Sat 23:55:29 32.8522 -114.1989 268° West 392 726 32.000 -651 Level Los Angeles Center
Sat 23:56:30 32.8472 -114.3289 267° West 394 729 31.100 -984 Descending Los Angeles Center
Sat 23:57:31 32.8436 -114.4597 268° West 395 732 30.000 -976 Descending Los Angeles Center
Sat 23:58:33 32.8386 -114.5928 267° West 403 747 29.100 -878 Descending Los Angeles Center
Sat 23:59:34 32.8339 -114.7256 268° West 402 745 28.200 -934 Descending Los Angeles Center
Sun 00:00:35 32.8286 -114.8614 267° West 407 753 27.200 -934 Descending Los Angeles Center
Sun 00:01:36 32.8250 -114.9950 268° West 406 752 26.300 -1.033 Descending Los Angeles Center
Sun 00:02:37 32.8169 -115.1586 267° West 411 761 25.100 -1.033 Descending Los Angeles Center
Sun 00:03:38 32.8083 -115.2950 266° West 414 766 24.200 -927 Descending Los Angeles Center
Sun 00:04:40 32.8008 -115.4303 266° West 412 763 23.200 -976 Descending Los Angeles Center
Sun 00:05:41 32.7925 -115.5683 266° West 418 774 22.200 -984 Descending Los Angeles Center
Sun 00:06:42 32.7844 -115.7056 266° West 416 771 21.200 -984 Descending Los Angeles Center
Sun 00:07:43 32.7769 -115.8389 266° West 406 752 20.200 -1.033 Descending Los Angeles Center
Sun 00:08:44 32.7689 -115.9706 266° West 400 740 19.100 -1.623 Descending Los Angeles Center
Sun 00:09:45 32.7611 -116.0975 266° West 385 713 16.900 -2.164 Descending Los Angeles Center
Sun 00:10:46 32.7533 -116.2164 266° West 363 673 14.700 -2.066 Descending Los Angeles Center
Sun 00:11:47 32.7464 -116.3319 266° West 350 649 12.700 -1.967 Descending Los Angeles Center
Sun 00:12:48 32.7392 -116.4442 266° West 338 626 10.700 -1.426 Descending Los Angeles Center
Sun 00:13:49 32.7256 -116.5481 261° West 317 587 9.800 -1.180 Descending Los Angeles Center
Sun 00:14:50 32.7125 -116.6422 261° West 294 544 8.300 -1.426 Descending Los Angeles Center
Sun 00:15:51 32.7006 -116.7339 261° West 286 529 6.900 -1.131 Descending Los Angeles Center
Sun 00:16:52 32.6875 -116.8222 260° West 276 512 6.000 -1.068 Descending Los Angeles Center
Sun 00:17:49 32.6833 -116.9167 267° West 250 463 4.800 -1.077 Descending Southern California TRACON
Sun 00:18:49 32.6833 -116.9833 270° West 223 414 3.900 -1.150 Descending Southern California TRACON
Sun 00:19:49 32.7000 -117.0500 287° West 203 377 2.500 -1.067 Descending Southern California TRACON
Sun 00:21:49 32.7167 -117.1500 281° West 138 256 700 -762 Descending Southern California TRACON
Sun 00:22:58 32.7361 -117.1956 297° West 142 262 100 -522 Descending Los Angeles Center
Sun 00:24:00 32.7333 -117.1833 North  Level FlightAware Approximate
Sun 00:31:00 32.7336 -117.1897 North  Level Estimated

Login

Don't have an account? Register now (free) for customized features, flight alerts, and more!